A- A+ FrançaisEnglishEspañol中国

Services sur Internet Soldes sur Internet Des idées de cadeaux Météo Météo aéro

La météo à : Autours de vous Tarbes-Lourdes-PyrénéesCherbourg-Maupertus Le-Havre-OctevilleAvignon Pujaut

La météo aéronautique pour les pilotes, la préparation du vol avec les METAR (METeorological Aerodrome Report, message d'observation des conditions météorologiques pour l'aviation) et Les TAF (Terminal Aerodrome Forecast : message de prévision à court terme des conditions météorologiques pour l'aviation). Et les autres ressources comme les VAC (Visual Approch Chart) et les NOTAM (Notice To Airman) pour préprer les vols.

Aéroport Floro (Norvège) / OACI ENFL/ IATA FRO

L'altitude de l'aéroport Floro est de 11 m = 36 ft. Il est situé à proximité de Florø (Norvège). La météo générale à 5 jours est disponible pour Sogn og Fjordane Fylke situé à 96.3 km.

METAR de l'aéroport Floro - ENFL

ENFL 070450Z AUTO 31013KT 9999NDV -SHRA FEW015/// SCT026/// BKN036/// 03/01 Q0990

Décodage du METAR de l'aéroport Floro (NO)

METAR émis par ENFL le samedi 7 décembre 2019 à 04:50 heure TU. C'est un METAR généré automatiquement. Attention ce METAR est obsolète car il a été émis il y a 14 heure et 11 minutes.

La visibilité est de supérieure à 10 km = supérieure à 6.2 sm.

La température est de 3°C = 37 °F et le point rosée est de 1°C = 34 °F . Ce qui correspond à 87% d'humidité relative.

Le QNH est de 990 hPa = 29.23 inHg

Vent de 13 kt = 24 km/h, orienté à 310°.

Nuages : Quelques nuages à 1500 ft = 460 mètres. Nuages épars à 2600 ft = 790 mètres. Couverture nuageuse fragmentée à 3600 ft = 1100 mètres.

-SHRA

TAF de l'aéroport Floro - ENFL

ENFL 111400Z 1115/1123 11010KT 9999 FEW030

ENFL 111400Z 1115/1123 11010KT 9999 quelques nuages à 030

Aéroport à proximité de Floro

Météo générale à 5 jours à Sogn og Fjordane Fylke (96.3 km)Aéroport Forde Bringeland (44 km)Aéroport Sandane Anda (63 km)Aéroport Orsta Volda Hovden (86 km)Aéroport Sogndal Haukasen (122 km)Aéroport Alesund (123 km)Aéroport Bomoen (132 km)

Vue aérienne de l'aéroport Floro

NOTAM de l'aéroport Floro

Les NOTAM sont fournis sans aucune garantie de leur actualité. Le pilote est le seul responsable de la vérification de sa validité avant de l'utiliser opérationnellement pour préparer un vol ou l'utiliser lors de sa navigation.

Pas de NOTAM

Sources des données